Ever Delight — 3FCB8 — position and weather

sailwx.info

Track history (hours):
 
Tides and Currents Weather Stations Pressure Air Temp Water Temp Dewpoint Dewpoint Depression Visibility Wind Speed Wind Dir Waves Ship Positions

Ever Delight

Last reported at 2017-Jun-26 09:08 UTC. Time now 2017-Jul-22 22:42 UTC.
Position N 01°19' E 103°20'.
Warning: this ship's position is 26 days out of date.

Type: Cargo ship. MMSI: 351936000.

Date/timePositionNaut miles runAvg speedWind from/ knotsBaromVisibWave heightAir tempDewpointWater temp
2017-Jun-26 09:08N 01°19' E 103°20'514.7
2017-Jun-26 08:49N 01°15' E 103°24'514.1
2017-Jun-26 08:30N 01°14' E 103°28'714.1
2017-Jun-26 08:01N 01°11' E 103°34'611.1
2017-Jun-26 07:31N 01°12' E 103°40'510.1
2017-Jun-26 07:00N 01°15' E 103°44'3 6.9
2017-Jun-26 06:31N 01°16' E 103°47'0 0.1
2017-Jun-26 06:01N 01°16' E 103°47'0 0.0
2017-Jun-26 05:31N 01°16' E 103°47'0 0.0
2017-Jun-26 05:01N 01°16' E 103°47'0 0.0
2017-Jun-26 04:30N 01°16' E 103°47'0 0.0
2017-Jun-26 04:01N 01°16' E 103°47'0 0.0
2017-Jun-26 03:31N 01°16' E 103°47'0 0.0
2017-Jun-26 03:01N 01°16' E 103°47'0 0.0
2017-Jun-26 02:31N 01°16' E 103°47'0 0.0
2017-Jun-26 02:01N 01°16' E 103°47'0 0.0
2017-Jun-26 01:31N 01°16' E 103°47'0 0.1
2017-Jun-26 01:01N 01°16' E 103°47'0 0.1
2017-Jun-26 00:31N 01°16' E 103°47'0 0.0
2017-Jun-26 00:01N 01°16' E 103°47'0 0.0
2017-Jun-25 23:31N 01°16' E 103°47'0 0.0
2017-Jun-25 23:01N 01°16' E 103°47'0 0.0
2017-Jun-25 22:31N 01°16' E 103°47'0 0.0
2017-Jun-25 22:01N 01°16' E 103°47'0 0.0
2017-Jun-25 21:31N 01°16' E 103°47'0 0.0
2017-Jun-25 21:01N 01°16' E 103°47'0 0.0
2017-Jun-25 20:31N 01°16' E 103°47'0 0.0
2017-Jun-25 20:01N 01°16' E 103°47'0 0.0
2017-Jun-25 19:31N 01°16' E 103°47'0 0.0
2017-Jun-25 19:00N 01°16' E 103°47'0 0.0
2017-Jun-25 18:31N 01°16' E 103°47'0 0.0
2017-Jun-25 18:01N 01°16' E 103°47'0 0.1
2017-Jun-25 17:30N 01°16' E 103°47'0 0.1
2017-Jun-25 17:01N 01°16' E 103°47'0 0.0
2017-Jun-25 16:31N 01°16' E 103°47'0 0.1
2017-Jun-25 16:01N 01°16' E 103°47'0 0.1
2017-Jun-25 15:31N 01°16' E 103°47'0 0.0
2017-Jun-25 15:01N 01°16' E 103°47'0 0.0
2017-Jun-25 14:00N 01°16' E 103°47'0 0.0
2017-Jun-25 13:31N 01°16' E 103°47'0 0.0
2017-Jun-25 13:01N 01°16' E 103°47'0 0.0
2017-Jun-25 12:31N 01°16' E 103°47'0 0.0
2017-Jun-25 12:01N 01°16' E 103°47'0 0.0
2017-Jun-25 11:31N 01°16' E 103°47'0 0.0
2017-Jun-25 11:01N 01°16' E 103°47'0 0.1
2017-Jun-25 10:31N 01°16' E 103°47'0 1.0
2017-Jun-25 10:01N 01°16' E 103°47'2 3.5
2017-Jun-25 09:31N 01°15' E 103°45'3 5.9
2017-Jun-25 09:01N 01°14' E 103°43'3 6.2
2017-Jun-25 08:30N 01°12' E 103°40'3 6.1
2017-Jun-25 08:01N 01°12' E 103°37'3 5.9
2017-Jun-25 07:31N 01°12' E 103°34'5 9.1
2017-Jun-25 07:01N 01°10' E 103°30'1 1.2
2017-Jun-25 06:30N 01°10' E 103°30'2 3.3
2017-Jun-25 06:00N 01°09' E 103°32'1 1.3
2017-Jun-25 05:31N 01°09' E 103°32'1 1.3
2017-Jun-25 05:00N 01°09' E 103°32'1 1.2
2017-Jun-25 04:30N 01°10' E 103°32'1 1.3
2017-Jun-25 04:01N 01°10' E 103°31'1 1.2
2017-Jun-25 03:30N 01°10' E 103°30'0 0.2
2017-Jun-25 03:00N 01°10' E 103°30'2 3.2
2017-Jun-25 02:30N 01°11' E 103°32'1 1.4
2017-Jun-25 02:01N 01°11' E 103°31'1 1.5
2017-Jun-25 01:31N 01°11' E 103°30'0 0.6
2017-Jun-25 01:00N 01°11' E 103°30'1 1.6
2017-Jun-25 00:30N 01°10' E 103°31'2 3.8
2017-Jun-25 00:00N 01°12' E 103°31'5 9.4
2017-Jun-24 23:31N 01°17' E 103°33'4 8.9
2017-Jun-24 23:01N 01°21' E 103°33'0 1.0
2017-Jun-24 22:30N 01°22' E 103°33'0 0.0
2017-Jun-24 22:01N 01°22' E 103°33'0 0.0
2017-Jun-24 21:31N 01°22' E 103°33'0 0.0
2017-Jun-24 21:01N 01°22' E 103°33'0 0.0
2017-Jun-24 20:30N 01°22' E 103°33'0 0.0
2017-Jun-24 20:01N 01°22' E 103°33'0 0.0
2017-Jun-24 19:31N 01°22' E 103°33'0 0.0
2017-Jun-24 19:01N 01°22' E 103°33'0 0.0
2017-Jun-24 18:31N 01°22' E 103°33'0 0.0
2017-Jun-24 17:56N 01°22' E 103°33'0 0.0
2017-Jun-24 17:29N 01°22' E 103°33'0 0.0
2017-Jun-24 16:53N 01°22' E 103°33'0 0.1
2017-Jun-24 16:30N 01°22' E 103°33'0 0.0
2017-Jun-24 16:00N 01°22' E 103°33'0 0.0
2017-Jun-24 15:30N 01°22' E 103°33'0 0.0
2017-Jun-24 14:54N 01°22' E 103°33'0 0.0
2017-Jun-24 13:54N 01°22' E 103°33'0 0.0
2017-Jun-24 13:21N 01°22' E 103°33'0 0.0
2017-Jun-24 13:00N 01°22' E 103°33'0 0.0
2017-Jun-24 12:18N 01°22' E 103°33'0 0.0
2017-Jun-24 11:51N 01°22' E 103°33'0 0.0
2017-Jun-24 11:28N 01°22' E 103°33'0 0.0
2017-Jun-24 10:43N 01°22' E 103°33'0 0.0
2017-Jun-24 10:22N 01°22' E 103°33'0 0.0
2017-Jun-24 09:55N 01°22' E 103°33'0 0.0
2017-Jun-24 09:28N 01°22' E 103°33'0 0.0
2017-Jun-24 08:58N 01°22' E 103°33'0 0.0
2017-Jun-24 08:20N 01°22' E 103°33'0 0.0
2017-Jun-24 07:58N 01°22' E 103°33'0 0.0
2017-Jun-24 07:26N 01°22' E 103°33'0 0.0
2017-Jun-24 07:00N 01°22' E 103°33'0 0.7
2017-Jun-24 06:31N 01°21' E 103°33'4 7.4
2017-Jun-24 06:01N 01°18' E 103°33'3 4.9
2017-Jun-24 05:30N 01°15' E 103°33'0 0.0
2017-Jun-24 04:57N 01°15' E 103°33'0 0.1
2017-Jun-24 04:31N 01°15' E 103°34'0 0.0
2017-Jun-24 04:01N 01°15' E 103°34'0 0.0
2017-Jun-24 03:29N 01°15' E 103°34'0 0.1
2017-Jun-24 03:01N 01°15' E 103°33'0 0.0
2017-Jun-24 02:30N 01°15' E 103°33'0 0.0
2017-Jun-24 02:01N 01°15' E 103°33'0 0.0
2017-Jun-24 01:31N 01°15' E 103°33'0 0.1
2017-Jun-24 01:01N 01°15' E 103°33'0 0.0
2017-Jun-24 00:30N 01°15' E 103°33'0 0.1
2017-Jun-24 00:01N 01°15' E 103°33'0 0.1
2017-Jun-23 23:31N 01°15' E 103°33'0 0.0
2017-Jun-23 23:00N 01°15' E 103°33'0 0.1
2017-Jun-23 22:30N 01°15' E 103°33'0 0.0
2017-Jun-23 22:00N 01°15' E 103°33'0 0.0
2017-Jun-23 21:30N 01°15' E 103°33'0 0.0
2017-Jun-23 21:00N 01°15' E 103°33'0 0.1
2017-Jun-23 20:31N 01°15' E 103°33'0 0.1
2017-Jun-23 20:01N 01°15' E 103°33'0 0.1
2017-Jun-23 19:31N 01°15' E 103°34'0 0.1
2017-Jun-23 19:01N 01°15' E 103°33'0 0.1
2017-Jun-23 18:28N 01°15' E 103°33'0 0.1
2017-Jun-23 18:01N 01°15' E 103°33'0 0.1
2017-Jun-23 17:31N 01°15' E 103°34'0 0.0
2017-Jun-23 17:00N 01°15' E 103°34'0 0.0
2017-Jun-23 16:31N 01°15' E 103°34'0 0.0
2017-Jun-23 16:00N 01°15' E 103°34'0 0.0
2017-Jun-23 15:31N 01°15' E 103°34'0 0.1
2017-Jun-23 14:53N 01°15' E 103°34'0 0.0
2017-Jun-23 13:50N 01°15' E 103°34'0 0.2
2017-Jun-23 13:29N 01°15' E 103°33'0 0.0
2017-Jun-23 12:47N 01°15' E 103°33'0 0.1
2017-Jun-23 12:29N 01°15' E 103°33'0 0.0
2017-Jun-23 11:56N 01°15' E 103°33'0 0.1
2017-Jun-23 11:29N 01°15' E 103°33'0 0.2
2017-Jun-23 10:47N 01°15' E 103°33'0 0.2
2017-Jun-23 10:26N 01°15' E 103°33'0 0.1
2017-Jun-23 09:47N 01°15' E 103°33'0 0.0
2017-Jun-23 09:29N 01°15' E 103°33'0 0.1
2017-Jun-23 08:56N 01°15' E 103°33'0 0.0
2017-Jun-23 08:29N 01°15' E 103°33'0 0.1
2017-Jun-23 07:53N 01°15' E 103°33'0 0.0
2017-Jun-23 07:23N 01°15' E 103°33'0 0.2
2017-Jun-23 06:53N 01°15' E 103°33'0 0.0
2017-Jun-23 06:26N 01°15' E 103°33'0 0.0
2017-Jun-23 05:56N 01°15' E 103°33'0 0.1
2017-Jun-23 05:11N 01°15' E 103°34'0 0.1
2017-Jun-23 04:53N 01°15' E 103°34'0 0.1
2017-Jun-23 04:29N 01°15' E 103°34'0 0.0
2017-Jun-23 03:56N 01°15' E 103°34'0 0.1
2017-Jun-23 03:23N 01°15' E 103°34'0 0.0
2017-Jun-23 02:47N 01°15' E 103°34'0 0.0
2017-Jun-23 02:29N 01°15' E 103°34'0 0.0
2017-Jun-23 01:47N 01°15' E 103°34'0 0.0
2017-Jun-23 01:26N 01°15' E 103°34'0 0.2
2017-Jun-23 00:50N 01°15' E 103°33'0 0.1
2017-Jun-23 00:29N 01°15' E 103°33'0 0.2
2017-Jun-22 23:56N 01°15' E 103°33'0 0.3
2017-Jun-22 23:26N 01°15' E 103°33'0 0.1
2017-Jun-22 22:53N 01°15' E 103°33'0 0.0
2017-Jun-22 22:23N 01°15' E 103°33'0 0.0
2017-Jun-22 21:56N 01°15' E 103°33'0 0.1
2017-Jun-22 21:26N 01°15' E 103°33'0 0.0
2017-Jun-22 20:44N 01°15' E 103°33'0 0.0
2017-Jun-22 19:50N 01°15' E 103°33'0 0.0
2017-Jun-22 19:26N 01°15' E 103°33'0 0.1
2017-Jun-22 18:17N 01°15' E 103°33'0 0.2
2017-Jun-22 17:56N 01°15' E 103°33'0 0.6
2017-Jun-22 17:26N 01°15' E 103°33'0 0.0
2017-Jun-22 16:56N 01°15' E 103°33'0 0.0
2017-Jun-22 16:26N 01°15' E 103°33'0 0.2
2017-Jun-22 15:53N 01°15' E 103°33'0 1.2
2017-Jun-22 15:30N 01°15' E 103°33'5 9.9
2017-Jun-22 15:00N 01°11' E 103°30'713.7
2017-Jun-22 14:29N 01°13' E 103°23'6015.3
2017-Jun-22 10:33N 01°45' E 102°32'116.2
2017-Jun-22 10:30N 01°45' E 102°31'915.3
2017-Jun-22 09:54N 01°49' E 102°23'  
Track history (hours):
 
Tides and Currents Weather Stations Pressure Air Temp Water Temp Dewpoint Dewpoint Depression Visibility Wind Speed Wind Dir Waves Ship Positions

Ever Delight

Last reported at 2017-Jun-26 09:08 UTC. Time now 2017-Jul-22 22:42 UTC.
Position N 01°19' E 103°20'.
Warning: this ship's position is 26 days out of date.

Type: Cargo ship. MMSI: 351936000.

Date/timePositionNaut miles runAvg speedWind from/ knotsBaromVisibWave heightAir tempDewpointWater temp
2017-Jun-26 09:08N 01°19' E 103°20'514.7
2017-Jun-26 08:49N 01°15' E 103°24'514.1
2017-Jun-26 08:30N 01°14' E 103°28'714.1
2017-Jun-26 08:01N 01°11' E 103°34'611.1
2017-Jun-26 07:31N 01°12' E 103°40'510.1
2017-Jun-26 07:00N 01°15' E 103°44'3 6.9
2017-Jun-26 06:31N 01°16' E 103°47'0 0.1
2017-Jun-26 06:01N 01°16' E 103°47'0 0.0
2017-Jun-26 05:31N 01°16' E 103°47'0 0.0
2017-Jun-26 05:01N 01°16' E 103°47'0 0.0
2017-Jun-26 04:30N 01°16' E 103°47'0 0.0
2017-Jun-26 04:01N 01°16' E 103°47'0 0.0
2017-Jun-26 03:31N 01°16' E 103°47'0 0.0
2017-Jun-26 03:01N 01°16' E 103°47'0 0.0
2017-Jun-26 02:31N 01°16' E 103°47'0 0.0
2017-Jun-26 02:01N 01°16' E 103°47'0 0.0
2017-Jun-26 01:31N 01°16' E 103°47'0 0.1
2017-Jun-26 01:01N 01°16' E 103°47'0 0.1
2017-Jun-26 00:31N 01°16' E 103°47'0 0.0
2017-Jun-26 00:01N 01°16' E 103°47'0 0.0
2017-Jun-25 23:31N 01°16' E 103°47'0 0.0
2017-Jun-25 23:01N 01°16' E 103°47'0 0.0
2017-Jun-25 22:31N 01°16' E 103°47'0 0.0
2017-Jun-25 22:01N 01°16' E 103°47'0 0.0
2017-Jun-25 21:31N 01°16' E 103°47'0 0.0
2017-Jun-25 21:01N 01°16' E 103°47'0 0.0
2017-Jun-25 20:31N 01°16' E 103°47'0 0.0
2017-Jun-25 20:01N 01°16' E 103°47'0 0.0
2017-Jun-25 19:31N 01°16' E 103°47'0 0.0
2017-Jun-25 19:00N 01°16' E 103°47'0 0.0
2017-Jun-25 18:31N 01°16' E 103°47'0 0.0
2017-Jun-25 18:01N 01°16' E 103°47'0 0.1
2017-Jun-25 17:30N 01°16' E 103°47'0 0.1
2017-Jun-25 17:01N 01°16' E 103°47'0 0.0
2017-Jun-25 16:31N 01°16' E 103°47'0 0.1
2017-Jun-25 16:01N 01°16' E 103°47'0 0.1
2017-Jun-25 15:31N 01°16' E 103°47'0 0.0
2017-Jun-25 15:01N 01°16' E 103°47'0 0.0
2017-Jun-25 14:00N 01°16' E 103°47'0 0.0
2017-Jun-25 13:31N 01°16' E 103°47'0 0.0
2017-Jun-25 13:01N 01°16' E 103°47'0 0.0
2017-Jun-25 12:31N 01°16' E 103°47'0 0.0
2017-Jun-25 12:01N 01°16' E 103°47'0 0.0
2017-Jun-25 11:31N 01°16' E 103°47'0 0.0
2017-Jun-25 11:01N 01°16' E 103°47'0 0.1
2017-Jun-25 10:31N 01°16' E 103°47'0 1.0
2017-Jun-25 10:01N 01°16' E 103°47'2 3.5
2017-Jun-25 09:31N 01°15' E 103°45'3 5.9
2017-Jun-25 09:01N 01°14' E 103°43'3 6.2
2017-Jun-25 08:30N 01°12' E 103°40'3 6.1
2017-Jun-25 08:01N 01°12' E 103°37'3 5.9
2017-Jun-25 07:31N 01°12' E 103°34'5 9.1
2017-Jun-25 07:01N 01°10' E 103°30'1 1.2
2017-Jun-25 06:30N 01°10' E 103°30'2 3.3
2017-Jun-25 06:00N 01°09' E 103°32'1 1.3
2017-Jun-25 05:31N 01°09' E 103°32'1 1.3
2017-Jun-25 05:00N 01°09' E 103°32'1 1.2
2017-Jun-25 04:30N 01°10' E 103°32'1 1.3
2017-Jun-25 04:01N 01°10' E 103°31'1 1.2
2017-Jun-25 03:30N 01°10' E 103°30'0 0.2
2017-Jun-25 03:00N 01°10' E 103°30'2 3.2
2017-Jun-25 02:30N 01°11' E 103°32'1 1.4
2017-Jun-25 02:01N 01°11' E 103°31'1 1.5
2017-Jun-25 01:31N 01°11' E 103°30'0 0.6
2017-Jun-25 01:00N 01°11' E 103°30'1 1.6
2017-Jun-25 00:30N 01°10' E 103°31'2 3.8
2017-Jun-25 00:00N 01°12' E 103°31'5 9.4
2017-Jun-24 23:31N 01°17' E 103°33'4 8.9
2017-Jun-24 23:01N 01°21' E 103°33'0 1.0
2017-Jun-24 22:30N 01°22' E 103°33'0 0.0
2017-Jun-24 22:01N 01°22' E 103°33'0 0.0
2017-Jun-24 21:31N 01°22' E 103°33'0 0.0
2017-Jun-24 21:01N 01°22' E 103°33'0 0.0
2017-Jun-24 20:30N 01°22' E 103°33'0 0.0
2017-Jun-24 20:01N 01°22' E 103°33'0 0.0
2017-Jun-24 19:31N 01°22' E 103°33'0 0.0
2017-Jun-24 19:01N 01°22' E 103°33'0 0.0
2017-Jun-24 18:31N 01°22' E 103°33'0 0.0
2017-Jun-24 17:56N 01°22' E 103°33'0 0.0
2017-Jun-24 17:29N 01°22' E 103°33'0 0.0
2017-Jun-24 16:53N 01°22' E 103°33'0 0.1
2017-Jun-24 16:30N 01°22' E 103°33'0 0.0
2017-Jun-24 16:00N 01°22' E 103°33'0 0.0
2017-Jun-24 15:30N 01°22' E 103°33'0 0.0
2017-Jun-24 14:54N 01°22' E 103°33'0 0.0
2017-Jun-24 13:54N 01°22' E 103°33'0 0.0
2017-Jun-24 13:21N 01°22' E 103°33'0 0.0
2017-Jun-24 13:00N 01°22' E 103°33'0 0.0
2017-Jun-24 12:18N 01°22' E 103°33'0 0.0
2017-Jun-24 11:51N 01°22' E 103°33'0 0.0
2017-Jun-24 11:28N 01°22' E 103°33'0 0.0
2017-Jun-24 10:43N 01°22' E 103°33'0 0.0
2017-Jun-24 10:22N 01°22' E 103°33'0 0.0
2017-Jun-24 09:55N 01°22' E 103°33'0 0.0
2017-Jun-24 09:28N 01°22' E 103°33'0 0.0
2017-Jun-24 08:58N 01°22' E 103°33'0 0.0
2017-Jun-24 08:20N 01°22' E 103°33'0 0.0
2017-Jun-24 07:58N 01°22' E 103°33'0 0.0
2017-Jun-24 07:26N 01°22' E 103°33'0 0.0
2017-Jun-24 07:00N 01°22' E 103°33'0 0.7
2017-Jun-24 06:31N 01°21' E 103°33'4 7.4
2017-Jun-24 06:01N 01°18' E 103°33'3 4.9
2017-Jun-24 05:30N 01°15' E 103°33'0 0.0
2017-Jun-24 04:57N 01°15' E 103°33'0 0.1
2017-Jun-24 04:31N 01°15' E 103°34'0 0.0
2017-Jun-24 04:01N 01°15' E 103°34'0 0.0
2017-Jun-24 03:29N 01°15' E 103°34'0 0.1
2017-Jun-24 03:01N 01°15' E 103°33'0 0.0
2017-Jun-24 02:30N 01°15' E 103°33'0 0.0
2017-Jun-24 02:01N 01°15' E 103°33'0 0.0
2017-Jun-24 01:31N 01°15' E 103°33'0 0.1
2017-Jun-24 01:01N 01°15' E 103°33'0 0.0
2017-Jun-24 00:30N 01°15' E 103°33'0 0.1
2017-Jun-24 00:01N 01°15' E 103°33'0 0.1
2017-Jun-23 23:31N 01°15' E 103°33'0 0.0
2017-Jun-23 23:00N 01°15' E 103°33'0 0.1
2017-Jun-23 22:30N 01°15' E 103°33'0 0.0
2017-Jun-23 22:00N 01°15' E 103°33'0 0.0
2017-Jun-23 21:30N 01°15' E 103°33'0 0.0
2017-Jun-23 21:00N 01°15' E 103°33'0 0.1
2017-Jun-23 20:31N 01°15' E 103°33'0 0.1
2017-Jun-23 20:01N 01°15' E 103°33'0 0.1
2017-Jun-23 19:31N 01°15' E 103°34'0 0.1
2017-Jun-23 19:01N 01°15' E 103°33'0 0.1
2017-Jun-23 18:28N 01°15' E 103°33'0 0.1
2017-Jun-23 18:01N 01°15' E 103°33'0 0.1
2017-Jun-23 17:31N 01°15' E 103°34'0 0.0
2017-Jun-23 17:00N 01°15' E 103°34'0 0.0
2017-Jun-23 16:31N 01°15' E 103°34'0 0.0
2017-Jun-23 16:00N 01°15' E 103°34'0 0.0
2017-Jun-23 15:31N 01°15' E 103°34'0 0.1
2017-Jun-23 14:53N 01°15' E 103°34'0 0.0
2017-Jun-23 13:50N 01°15' E 103°34'0 0.2
2017-Jun-23 13:29N 01°15' E 103°33'0 0.0
2017-Jun-23 12:47N 01°15' E 103°33'0 0.1
2017-Jun-23 12:29N 01°15' E 103°33'0 0.0
2017-Jun-23 11:56N 01°15' E 103°33'0 0.1
2017-Jun-23 11:29N 01°15' E 103°33'0 0.2
2017-Jun-23 10:47N 01°15' E 103°33'0 0.2
2017-Jun-23 10:26N 01°15' E 103°33'0 0.1
2017-Jun-23 09:47N 01°15' E 103°33'0 0.0
2017-Jun-23 09:29N 01°15' E 103°33'0 0.1
2017-Jun-23 08:56N 01°15' E 103°33'0 0.0
2017-Jun-23 08:29N 01°15' E 103°33'0 0.1
2017-Jun-23 07:53N 01°15' E 103°33'0 0.0
2017-Jun-23 07:23N 01°15' E 103°33'0 0.2
2017-Jun-23 06:53N 01°15' E 103°33'0 0.0
2017-Jun-23 06:26N 01°15' E 103°33'0 0.0
2017-Jun-23 05:56N 01°15' E 103°33'0 0.1
2017-Jun-23 05:11N 01°15' E 103°34'0 0.1
2017-Jun-23 04:53N 01°15' E 103°34'0 0.1
2017-Jun-23 04:29N 01°15' E 103°34'0 0.0
2017-Jun-23 03:56N 01°15' E 103°34'0 0.1
2017-Jun-23 03:23N 01°15' E 103°34'0 0.0
2017-Jun-23 02:47N 01°15' E 103°34'0 0.0
2017-Jun-23 02:29N 01°15' E 103°34'0 0.0
2017-Jun-23 01:47N 01°15' E 103°34'0 0.0
2017-Jun-23 01:26N 01°15' E 103°34'0 0.2
2017-Jun-23 00:50N 01°15' E 103°33'0 0.1
2017-Jun-23 00:29N 01°15' E 103°33'0 0.2
2017-Jun-22 23:56N 01°15' E 103°33'0 0.3
2017-Jun-22 23:26N 01°15' E 103°33'0 0.1
2017-Jun-22 22:53N 01°15' E 103°33'0 0.0
2017-Jun-22 22:23N 01°15' E 103°33'0 0.0
2017-Jun-22 21:56N 01°15' E 103°33'0 0.1
2017-Jun-22 21:26N 01°15' E 103°33'0 0.0
2017-Jun-22 20:44N 01°15' E 103°33'0 0.0
2017-Jun-22 19:50N 01°15' E 103°33'0 0.0
2017-Jun-22 19:26N 01°15' E 103°33'0 0.1
2017-Jun-22 18:17N 01°15' E 103°33'0 0.2
2017-Jun-22 17:56N 01°15' E 103°33'0 0.6
2017-Jun-22 17:26N 01°15' E 103°33'0 0.0
2017-Jun-22 16:56N 01°15' E 103°33'0 0.0
2017-Jun-22 16:26N 01°15' E 103°33'0 0.2
2017-Jun-22 15:53N 01°15' E 103°33'0 1.2
2017-Jun-22 15:30N 01°15' E 103°33'5 9.9
2017-Jun-22 15:00N 01°11' E 103°30'713.7
2017-Jun-22 14:29N 01°13' E 103°23'6015.3
2017-Jun-22 10:33N 01°45' E 102°32'116.2
2017-Jun-22 10:30N 01°45' E 102°31'915.3
2017-Jun-22 09:54N 01°49' E 102°23'  

Dump ship's entire track history